sensor_id;sensor_type;location;lat;lon;timestamp;pressure;altitude;pressure_sealevel;temperature;humidity
70589;BME280;58152;49.202;18.744;2023-03-16T00:02:04;97480.28;;;2.47;56.07
70589;BME280;58152;49.202;18.744;2023-03-16T00:04:30;97485.50;;;2.45;55.90
70589;BME280;58152;49.202;18.744;2023-03-16T00:06:56;97484.69;;;2.40;55.98
70589;BME280;58152;49.202;18.744;2023-03-16T00:09:22;97485.53;;;2.44;55.99
70589;BME280;58152;49.202;18.744;2023-03-16T00:11:56;97488.97;;;2.43;56.11
70589;BME280;58152;49.202;18.744;2023-03-16T00:14:23;97489.91;;;2.39;56.10
70589;BME280;58152;49.202;18.744;2023-03-16T00:16:48;97492.50;;;2.39;56.04
70589;BME280;58152;49.202;18.744;2023-03-16T00:19:13;97488.16;;;2.38;56.26
70589;BME280;58152;49.202;18.744;2023-03-16T00:21:39;97484.75;;;2.36;56.68
70589;BME280;58152;49.202;18.744;2023-03-16T00:24:05;97495.97;;;2.35;56.64
70589;BME280;58152;49.202;18.744;2023-03-16T00:26:30;97489.94;;;2.34;56.73
70589;BME280;58152;49.202;18.744;2023-03-16T00:28:56;97495.94;;;2.39;56.71
70589;BME280;58152;49.202;18.744;2023-03-16T00:31:21;97484.78;;;2.34;56.69
70589;BME280;58152;49.202;18.744;2023-03-16T00:33:49;97492.53;;;2.34;56.68
70589;BME280;58152;49.202;18.744;2023-03-16T00:36:16;97491.69;;;2.32;56.76
70589;BME280;58152;49.202;18.744;2023-03-16T00:38:44;97497.69;;;2.36;56.64
70589;BME280;58152;49.202;18.744;2023-03-16T00:41:10;97495.97;;;2.35;56.71
70589;BME280;58152;49.202;18.744;2023-03-16T00:43:39;97492.53;;;2.33;56.88
70589;BME280;58152;49.202;18.744;2023-03-16T00:46:11;97490.88;;;2.27;56.84
70589;BME280;58152;49.202;18.744;2023-03-16T00:48:39;97486.56;;;2.26;56.89
70589;BME280;58152;49.202;18.744;2023-03-16T00:51:08;97481.41;;;2.23;56.60
70589;BME280;58152;49.202;18.744;2023-03-16T00:53:35;97488.31;;;2.25;57.18
70589;BME280;58152;49.202;18.744;2023-03-16T00:56:02;97478.00;;;2.21;56.88
70589;BME280;58152;49.202;18.744;2023-03-16T00:58:29;97482.31;;;2.22;57.14
70589;BME280;58152;49.202;18.744;2023-03-16T01:01:02;97486.59;;;2.23;56.86
70589;BME280;58152;49.202;18.744;2023-03-16T01:03:28;97494.31;;;2.27;57.19
70589;BME280;58152;49.202;18.744;2023-03-16T01:05:54;97487.44;;;2.26;57.26
70589;BME280;58152;49.202;18.744;2023-03-16T01:08:24;97499.44;;;2.32;57.25
70589;BME280;58152;49.202;18.744;2023-03-16T01:10:52;97498.56;;;2.33;57.28
70589;BME280;58152;49.202;18.744;2023-03-16T01:13:19;97493.44;;;2.30;57.51
70589;BME280;58152;49.202;18.744;2023-03-16T01:15:49;97495.13;;;2.34;57.27
70589;BME280;58152;49.202;18.744;2023-03-16T01:18:14;97504.59;;;2.37;57.40
70589;BME280;58152;49.202;18.744;2023-03-16T01:20:40;97488.16;;;2.38;57.20
70589;BME280;58152;49.202;18.744;2023-03-16T01:23:13;97489.91;;;2.37;57.27
70589;BME280;58152;49.202;18.744;2023-03-16T01:25:38;97495.91;;;2.41;57.12
70589;BME280;58152;49.202;18.744;2023-03-16T01:28:04;97495.88;;;2.42;56.70
70589;BME280;58152;49.202;18.744;2023-03-16T01:30:42;97503.63;;;2.45;57.36
70589;BME280;58152;49.202;18.744;2023-03-16T01:33:07;97492.50;;;2.39;56.88
70589;BME280;58152;49.202;18.744;2023-03-16T01:35:55;97501.94;;;2.41;57.10
70589;BME280;58152;49.202;18.744;2023-03-16T01:38:21;97494.19;;;2.38;57.22
70589;BME280;58152;49.202;18.744;2023-03-16T01:40:48;97495.94;;;2.39;57.17
70589;BME280;58152;49.202;18.744;2023-03-16T01:43:17;97494.25;;;2.34;57.16
70589;BME280;58152;49.202;18.744;2023-03-16T01:48:35;97514.88;;;2.41;57.92
70589;BME280;58152;49.202;18.744;2023-03-16T01:51:15;97508.91;;;2.36;57.35
70589;BME280;58152;49.202;18.744;2023-03-16T01:53:44;97509.78;;;2.34;57.04
70589;BME280;58152;49.202;18.744;2023-03-16T01:56:14;97506.38;;;2.30;57.30
70589;BME280;58152;49.202;18.744;2023-03-16T01:58:41;97504.66;;;2.31;57.26
70589;BME280;58152;49.202;18.744;2023-03-16T02:01:08;97513.28;;;2.31;57.68
70589;BME280;58152;49.202;18.744;2023-03-16T02:03:35;97514.97;;;2.32;57.66
70589;BME280;58152;49.202;18.744;2023-03-16T02:06:11;97511.53;;;2.32;57.07
70589;BME280;58152;49.202;18.744;2023-03-16T02:08:39;97523.59;;;2.36;57.53
70589;BME280;58152;49.202;18.744;2023-03-16T02:11:08;97511.56;;;2.30;57.43
70589;BME280;58152;49.202;18.744;2023-03-16T02:13:34;97511.53;;;2.32;57.41
70589;BME280;58152;49.202;18.744;2023-03-16T02:16:05;97519.28;;;2.35;57.41
70589;BME280;58152;49.202;18.744;2023-03-16T02:18:31;97524.47;;;2.33;57.54
70589;BME280;58152;49.202;18.744;2023-03-16T02:23:50;97521.03;;;2.31;57.74
70589;BME280;58152;49.202;18.744;2023-03-16T02:26:36;97527.06;;;2.35;57.83
70589;BME280;58152;49.202;18.744;2023-03-16T02:29:10;97536.56;;;2.34;58.96
70589;BME280;58152;49.202;18.744;2023-03-16T02:31:40;97534.84;;;2.32;57.87
70589;BME280;58152;49.202;18.744;2023-03-16T02:34:06;97539.16;;;2.31;57.80
70589;BME280;58152;49.202;18.744;2023-03-16T02:36:33;97539.19;;;2.29;58.25
70589;BME280;58152;49.202;18.744;2023-03-16T02:39:01;97546.97;;;2.29;58.06
70589;BME280;58152;49.202;18.744;2023-03-16T02:41:27;97547.81;;;2.30;57.78
70589;BME280;58152;49.202;18.744;2023-03-16T02:44:00;97541.81;;;2.26;58.24
70589;BME280;58152;49.202;18.744;2023-03-16T02:46:29;97547.00;;;2.25;58.39
70589;BME280;58152;49.202;18.744;2023-03-16T02:51:56;97559.13;;;2.18;58.55
70589;BME280;58152;49.202;18.744;2023-03-16T02:54:24;97549.66;;;2.14;58.52
70589;BME280;58152;49.202;18.744;2023-03-16T02:56:50;97558.28;;;2.16;58.20
70589;BME280;58152;49.202;18.744;2023-03-16T02:59:16;97558.34;;;2.12;58.54
70589;BME280;58152;49.202;18.744;2023-03-16T03:01:44;97576.38;;;2.19;58.45
70589;BME280;58152;49.202;18.744;2023-03-16T03:04:10;97572.97;;;2.16;58.50
70589;BME280;58152;49.202;18.744;2023-03-16T03:06:36;97579.00;;;2.15;58.58
70589;BME280;58152;49.202;18.744;2023-03-16T03:09:02;97576.41;;;2.15;58.80
70589;BME280;58152;49.202;18.744;2023-03-16T03:11:28;97569.56;;;2.09;58.53
70589;BME280;58152;49.202;18.744;2023-03-16T03:13:54;97575.59;;;2.11;58.33
70589;BME280;58152;49.202;18.744;2023-03-16T03:16:20;97574.69;;;2.14;58.29
70589;BME280;58152;49.202;18.744;2023-03-16T03:18:46;97581.63;;;2.10;58.24
70589;BME280;58152;49.202;18.744;2023-03-16T03:21:11;97580.78;;;2.11;58.23
70589;BME280;58152;49.202;18.744;2023-03-16T03:23:37;97582.53;;;2.08;58.77
70589;BME280;58152;49.202;18.744;2023-03-16T03:26:03;97592.00;;;2.12;58.59
70589;BME280;58152;49.202;18.744;2023-03-16T03:28:29;97603.16;;;2.15;58.56
70589;BME280;58152;49.202;18.744;2023-03-16T03:30:55;97601.47;;;2.10;58.40
70589;BME280;58152;49.202;18.744;2023-03-16T03:33:20;97600.63;;;2.06;58.46
70589;BME280;58152;49.202;18.744;2023-03-16T03:35:56;97598.94;;;2.03;58.69
70589;BME280;58152;49.202;18.744;2023-03-16T03:38:24;97619.66;;;2.07;58.37
70589;BME280;58152;49.202;18.744;2023-03-16T03:40:51;97609.31;;;2.02;58.56
70589;BME280;58152;49.202;18.744;2023-03-16T03:43:22;97606.78;;;1.94;58.65
70589;BME280;58152;49.202;18.744;2023-03-16T03:45:58;97636.91;;;2.01;58.79
70589;BME280;58152;49.202;18.744;2023-03-16T03:48:24;97618.81;;;1.97;59.10
70589;BME280;58152;49.202;18.744;2023-03-16T03:50:50;97622.25;;;2.00;58.95
70589;BME280;58152;49.202;18.744;2023-03-16T03:53:16;97619.72;;;1.94;58.78
70589;BME280;58152;49.202;18.744;2023-03-16T03:55:42;97631.78;;;1.95;58.88
70589;BME280;58152;49.202;18.744;2023-03-16T03:58:08;97630.94;;;1.92;58.57
70589;BME280;58152;49.202;18.744;2023-03-16T04:00:33;97627.50;;;1.90;58.93
70589;BME280;58152;49.202;18.744;2023-03-16T04:03:00;97630.09;;;1.87;58.79
70589;BME280;58152;49.202;18.744;2023-03-16T04:05:25;97636.16;;;1.89;58.82
70589;BME280;58152;49.202;18.744;2023-03-16T04:07:55;97622.38;;;1.84;58.59
70589;BME280;58152;49.202;18.744;2023-03-16T04:10:31;97654.25;;;1.90;58.64
70589;BME280;58152;49.202;18.744;2023-03-16T04:12:58;97648.22;;;1.88;58.44
70589;BME280;58152;49.202;18.744;2023-03-16T04:15:25;97649.94;;;1.88;58.53
70589;BME280;58152;49.202;18.744;2023-03-16T04:17:51;97653.44;;;1.84;59.21
70589;BME280;58152;49.202;18.744;2023-03-16T04:20:17;97651.69;;;1.83;59.04
70589;BME280;58152;49.202;18.744;2023-03-16T04:22:46;97657.75;;;1.78;58.56
70589;BME280;58152;49.202;18.744;2023-03-16T04:25:15;97644.00;;;1.75;58.90
70589;BME280;58152;49.202;18.744;2023-03-16T04:27:41;97656.91;;;1.80;59.07
70589;BME280;58152;49.202;18.744;2023-03-16T04:30:11;97661.22;;;1.79;58.58
70589;BME280;58152;49.202;18.744;2023-03-16T04:32:49;97668.09;;;1.82;58.51
70589;BME280;58152;49.202;18.744;2023-03-16T04:38:21;97656.09;;;1.68;58.61
70589;BME280;58152;49.202;18.744;2023-03-16T04:41:02;97650.88;;;1.73;59.09
70589;BME280;58152;49.202;18.744;2023-03-16T04:46:46;97662.94;;;1.80;59.04
70589;BME280;58152;49.202;18.744;2023-03-16T04:49:11;97660.34;;;1.77;58.46
70589;BME280;58152;49.202;18.744;2023-03-16T04:51:37;97661.22;;;1.76;58.91
70589;BME280;58152;49.202;18.744;2023-03-16T04:54:05;97665.56;;;1.71;58.82
70589;BME280;58152;49.202;18.744;2023-03-16T04:56:30;97657.81;;;1.68;59.03
70589;BME280;58152;49.202;18.744;2023-03-16T04:58:56;97661.28;;;1.64;58.93
70589;BME280;58152;49.202;18.744;2023-03-16T05:01:22;97681.97;;;1.68;59.28
70589;BME280;58152;49.202;18.744;2023-03-16T05:03:47;97675.94;;;1.65;58.88
70589;BME280;58152;49.202;18.744;2023-03-16T05:06:14;97686.28;;;1.65;58.92
70589;BME280;58152;49.202;18.744;2023-03-16T05:08:40;97677.72;;;1.53;59.22
70589;BME280;58152;49.202;18.744;2023-03-16T05:11:05;97682.88;;;1.55;59.28
70589;BME280;58152;49.202;18.744;2023-03-16T05:13:31;97687.22;;;1.51;59.46
70589;BME280;58152;49.202;18.744;2023-03-16T05:15:57;97688.06;;;1.50;59.54
70589;BME280;58152;49.202;18.744;2023-03-16T05:18:22;97705.31;;;1.55;59.98
70589;BME280;58152;49.202;18.744;2023-03-16T05:20:53;97705.31;;;1.50;59.30
70589;BME280;58152;49.202;18.744;2023-03-16T05:23:20;97702.75;;;1.48;59.34
70589;BME280;58152;49.202;18.744;2023-03-16T05:25:47;97713.94;;;1.53;59.64
70589;BME280;58152;49.202;18.744;2023-03-16T05:28:13;97713.09;;;1.51;59.62
70589;BME280;58152;49.202;18.744;2023-03-16T05:30:39;97706.19;;;1.50;59.63
70589;BME280;58152;49.202;18.744;2023-03-16T05:33:06;97721.66;;;1.58;59.43
70589;BME280;58152;49.202;18.744;2023-03-16T05:35:32;97707.91;;;1.56;59.81
70589;BME280;58152;49.202;18.744;2023-03-16T05:37:59;97703.59;;;1.53;59.48
70589;BME280;58152;49.202;18.744;2023-03-16T05:40:27;97705.31;;;1.55;59.80
70589;BME280;58152;49.202;18.744;2023-03-16T05:42:56;97718.25;;;1.56;59.81
70589;BME280;58152;49.202;18.744;2023-03-16T05:45:24;97725.13;;;1.59;59.95
70589;BME280;58152;49.202;18.744;2023-03-16T05:47:49;97717.34;;;1.60;59.72
70589;BME280;58152;49.202;18.744;2023-03-16T05:50:18;97717.34;;;1.56;59.65
70589;BME280;58152;49.202;18.744;2023-03-16T05:52:51;97714.78;;;1.54;59.75
70589;BME280;58152;49.202;18.744;2023-03-16T05:55:17;97725.13;;;1.62;59.59
70589;BME280;58152;49.202;18.744;2023-03-16T05:57:42;97725.94;;;1.67;59.56
70589;BME280;58152;49.202;18.744;2023-03-16T06:00:11;97738.84;;;1.73;59.34
70589;BME280;58152;49.202;18.744;2023-03-16T06:02:48;97733.69;;;1.73;60.11
70589;BME280;58152;49.202;18.744;2023-03-16T06:05:16;97739.72;;;1.73;59.40
70589;BME280;58152;49.202;18.744;2023-03-16T06:07:44;97736.28;;;1.74;59.02
70589;BME280;58152;49.202;18.744;2023-03-16T06:10:11;97749.16;;;1.82;59.34
70589;BME280;58152;49.202;18.744;2023-03-16T06:12:37;97736.25;;;1.76;59.17
70589;BME280;58152;49.202;18.744;2023-03-16T06:15:03;97756.03;;;1.83;59.21
70589;BME280;58152;49.202;18.744;2023-03-16T06:17:33;97743.16;;;1.80;59.18
70589;BME280;58152;49.202;18.744;2023-03-16T06:19:58;97766.38;;;1.86;58.65
70589;BME280;58152;49.202;18.744;2023-03-16T06:22:26;97761.22;;;1.85;58.95
70589;BME280;58152;49.202;18.744;2023-03-16T06:24:52;97762.06;;;1.90;58.67
70589;BME280;58152;49.202;18.744;2023-03-16T06:27:18;97766.38;;;1.91;58.28
70589;BME280;58152;49.202;18.744;2023-03-16T06:29:45;97761.22;;;1.89;58.40
70589;BME280;58152;49.202;18.744;2023-03-16T06:32:14;97768.97;;;1.91;58.80
70589;BME280;58152;49.202;18.744;2023-03-16T06:34:40;97775.88;;;1.93;58.61
70589;BME280;58152;49.202;18.744;2023-03-16T06:37:06;97776.72;;;1.94;58.06
70589;BME280;58152;49.202;18.744;2023-03-16T06:39:31;97782.72;;;1.96;58.10
70589;BME280;58152;49.202;18.744;2023-03-16T06:41:57;97787.91;;;1.96;57.88
70589;BME280;58152;49.202;18.744;2023-03-16T06:44:22;97787.91;;;2.02;58.46
70589;BME280;58152;49.202;18.744;2023-03-16T06:46:48;97779.28;;;1.97;58.27
70589;BME280;58152;49.202;18.744;2023-03-16T06:49:13;97793.09;;;1.99;58.30
70589;BME280;58152;49.202;18.744;2023-03-16T06:51:39;97797.38;;;2.00;57.90
70589;BME280;58152;49.202;18.744;2023-03-16T06:54:07;97782.75;;;1.91;58.04
70589;BME280;58152;49.202;18.744;2023-03-16T06:56:35;97802.56;;;2.00;57.87
70589;BME280;58152;49.202;18.744;2023-03-16T06:59:00;97790.50;;;1.94;57.36
70589;BME280;58152;49.202;18.744;2023-03-16T07:01:28;97809.47;;;1.99;57.38
70589;BME280;58152;49.202;18.744;2023-03-16T07:03:58;97792.22;;;1.92;57.63
70589;BME280;58152;49.202;18.744;2023-03-16T07:06:23;97805.16;;;1.98;57.32
70589;BME280;58152;49.202;18.744;2023-03-16T07:08:53;97806.91;;;1.93;57.46
70589;BME280;58152;49.202;18.744;2023-03-16T07:11:18;97806.03;;;1.96;57.38
70589;BME280;58152;49.202;18.744;2023-03-16T07:13:44;97817.22;;;1.99;57.16
70589;BME280;58152;49.202;18.744;2023-03-16T07:16:09;97812.06;;;1.92;57.22
70589;BME280;58152;49.202;18.744;2023-03-16T07:18:35;97815.50;;;1.97;57.13
70589;BME280;58152;49.202;18.744;2023-03-16T07:21:04;97812.94;;;1.94;56.89
70589;BME280;58152;49.202;18.744;2023-03-16T07:23:30;97826.72;;;2.00;56.53
70589;BME280;58152;49.202;18.744;2023-03-16T07:25:56;97830.13;;;2.06;56.95
70589;BME280;58152;49.202;18.744;2023-03-16T07:28:22;97835.28;;;2.10;57.38
70589;BME280;58152;49.202;18.744;2023-03-16T07:30:50;97834.41;;;2.22;57.08
70589;BME280;58152;49.202;18.744;2023-03-16T07:33:16;97830.94;;;2.26;56.51
70589;BME280;58152;49.202;18.744;2023-03-16T07:35:49;97836.09;;;2.31;56.76
70589;BME280;58152;49.202;18.744;2023-03-16T07:41:19;97826.56;;;2.34;56.95
70589;BME280;58152;49.202;18.744;2023-03-16T07:43:47;97823.09;;;2.37;56.90
70589;BME280;58152;49.202;18.744;2023-03-16T07:46:24;97823.06;;;2.44;56.35
70589;BME280;58152;49.202;18.744;2023-03-16T07:48:52;97836.84;;;2.46;56.02
70589;BME280;58152;49.202;18.744;2023-03-16T07:51:18;97833.38;;;2.50;56.03
70589;BME280;58152;49.202;18.744;2023-03-16T07:53:43;97842.84;;;2.54;56.10
70589;BME280;58152;49.202;18.744;2023-03-16T07:56:34;97828.16;;;2.57;56.00
